Junin de los Andes, Argentina
Current Conditions -  °F | °C
As of 4:00 PM on Thursday 30 Oct 2014 (Local Time) from SAZS Reporting Station
Rain Showers Rain Showers  
Wind Chill: 32°   Ceiling: Unl
Heat Index: 43°   Visibility: 6mi
Dew Point: 27°   Wind: 30mph
Humidity: 53%   Direction: 320°NW
Pressure: 29.85"   Gusts: 46mph
Location:  39.93°S, 71.08°W
Report Text: SAZS 301900Z 32026G40KT 9000 VCSH SCT030SCT035 06/M03 Q1011
Loading
Personal Weather Stations






























Interactive Weather Map
Tropical Storm Tracking
New forecast layout! Learn more

10-Day Weather Forecast

Advertisements
Track Severe Weather on mobile